Forum - METEO

POST X METEO

Amministratore
F.ranco52 08/10/2021 ore 09:07 Quota

(nessuno) Nowcasting Venerdì 8 Ottobre 2021

Buongiorno e Buona Giornata a tutti





Notizie Meteo dell'Italia da il Meteo .It


http://ilMeteo.It


la Situazione Italiana vista dal Sat









il Radar Europeo










Brindisi

METAR LIBR 080550Z AUTO 30004KT 9999 -RA OVC085/// 16/14 Q1009=

METAR di Brindisi del 8 alle 5,50z

Vento da 300░ W NW 4 nodi (7,408 km) VisibilitÓ 10000 m , Pioggia Debole
Copertura 8 ottavi da 8500 piedi (2490,8 m)
Temp 16░C Dew 14░C Ur 87% hPa 1009

Brindisi

TAF LIBR 080500Z 0806/0906 13010KT 9999 SCT020 BKN060 TEMPO 0806/0824 4000 TSRA=

le TAF di Brindisi delle 5z Previsioni dalle 6z alle 6z del 8

Vento da 130░ E SE 10 nodi (18,52 km VisibilitÓ 10000 m
Copertura 3-4 ottavi da 2000 piedi (609,6 m)
Copertura 5-7 ottavi da 6000 piedi (1828,8 m)
il Tempo VarierÓ dalle 6z alle 24z
VisibilitÓ 4000 m , Temporali di Pioggia


Gioia del Cole

METAR LIBV 080555Z VRB02KT 9999 FEW009 12/12 Q1009 RMK BKN SCT180 VIS MIN 9999 WIND THR32 02005KT WIND THR14 33003KT BLU=

METAR di Gioia del Colle del 8 alle 5,55z

Vento Variabile 2 nodi (3,704 km) VisibilitÓ 10000 m
Copertura 1-2 ottavi da 900 piedi (274, 32 m)
Temp 12░C Dew 12░C Ur 100% hPa 1009
Aumento della NuvolositÓ a 5-7 ottavi
Copertura3-4 ottavi da 18888 piedi (5486,4 m)
VisibilitÓ Minima 10000 m

Gioia del Colle

TAF LIBV 080500Z 0806/0815 36010KT 8000 BKN020 TEMPO 0806/0813 4000 TSRA SCT010 FEW015CB BKN018=

le TAF di Gioia del Colle delle 5z Previsioni dalle 6z alle 15z

Vento da 360░ N 10 nodi (18,52 km) VisibilitÓ 8000 m
Copertura 5-7 ottavi da 2000 piedi (609,6 m)
il Tenpo VarierÓ dalle 6z alle 13z
VisibilitÓ 4000 m , Temporali di Pioggia
Copertura 3-4 ottavi da 1000 piedi (304,8 m)
Copertura 1-2 ottavi da 1500 piedi (457,2 m) , Cumulonembi
Copertura 5-7 ottavi da 1800 piedi (548,64 m)
2742877
Buongiorno e Buona Giornata a tutti Notizie Meteo dell'Italia da il Meteo .It http://ilMeteo.It la Situazione Italiana vista dal...
Discussione
08/10/2021 09:07:18
none
  • mi piace
    iLikeIt
    PublicVote

Vuoi partecipare anche tu a questa discussione?

Rispondi per lasciare il tuo messaggio in questa discussione